Time;durP1;ratioP1;P1;durP2;ratioP2;P2;SDS_P1;SDS_P2;PMS_P1;PMS_P2;Temp;Humidity;BMP_temperature;BMP_pressure;BME280_temperature;BME280_humidity;BME280_pressure;Samples;Min_cycle;Max_cycle;Signal;HPM_P1;HPM_P2
2021/05/09 00:01:29;;;;;;;7.97;2.63;;;;;;;;;;4950133;28;20409;-59
2021/05/09 00:04:00;;;;;;;11.35;3.42;;;;;;;;;;4949201;28;20054;-59
2021/05/09 00:06:27;;;;;;;5.18;2.70;;;;;;;;;;4945559;28;20065;-58
2021/05/09 00:08:54;;;;;;;7.67;2.87;;;;;;;;;;4942443;28;20114;-59
2021/05/09 00:11:20;;;;;;;7.95;2.80;;;;;;;;;;4947551;28;20499;-59
2021/05/09 00:13:48;;;;;;;6.07;2.90;;;;;;;;;;4945598;28;20094;-59
2021/05/09 00:16:14;;;;;;;7.07;3.35;;;;;;;;;;4948419;28;20047;-59
2021/05/09 00:18:40;;;;;;;7.97;2.63;;;;;;;;;;4945527;28;20058;-59
2021/05/09 00:21:07;;;;;;;7.10;2.50;;;;;;;;;;4950188;28;20043;-59
2021/05/09 00:23:33;;;;;;;6.30;2.63;;;;;;;;;;4950460;29;20039;-59
2021/05/09 00:25:59;;;;;;;6.78;2.92;;;;;;;;;;4947411;28;20126;-59
2021/05/09 00:28:28;;;;;;;10.98;2.65;;;;;;;;;;4950710;28;20047;-59
2021/05/09 00:30:54;;;;;;;3.85;2.00;;;;;;;;;;4948723;28;20066;-59
2021/05/09 00:33:20;;;;;;;4.75;2.10;;;;;;;;;;4945874;28;20130;-59
2021/05/09 00:35:47;;;;;;;8.43;2.25;;;;;;;;;;4950844;28;20039;-59
2021/05/09 00:38:13;;;;;;;9.63;2.30;;;;;;;;;;4949347;28;20410;-59
2021/05/09 00:40:40;;;;;;;4.40;2.10;;;;;;;;;;4945428;28;20066;-59
2021/05/09 00:43:07;;;;;;;7.70;2.22;;;;;;;;;;4945532;28;20082;-59
2021/05/09 00:45:37;;;;;;;4.40;2.17;;;;;;;;;;4952571;28;20038;-59
2021/05/09 00:48:04;;;;;;;6.53;2.03;;;;;;;;;;4948790;28;20134;-58
2021/05/09 00:50:31;;;;;;;7.88;2.35;;;;;;;;;;4947277;28;20032;-59
2021/05/09 00:52:57;;;;;;;6.68;2.08;;;;;;;;;;4928602;29;20130;-58
2021/05/09 00:55:24;;;;;;;7.40;2.20;;;;;;;;;;4931852;28;20054;-59
2021/05/09 00:57:51;;;;;;;6.40;2.22;;;;;;;;;;4945431;28;20049;-59
2021/05/09 01:00:18;;;;;;;5.17;2.47;;;;;;;;;;4951191;28;20043;-59
2021/05/09 01:02:45;;;;;;;3.72;1.90;;;;;;;;;;4932205;28;20521;-58
2021/05/09 01:05:12;;;;;;;9.68;2.33;;;;;;;;;;4941119;28;20071;-59
2021/05/09 01:07:40;;;;;;;9.02;2.28;;;;;;;;;;4931523;29;20077;-59
2021/05/09 01:10:08;;;;;;;8.32;2.28;;;;;;;;;;4944835;28;20046;-59
2021/05/09 01:12:35;;;;;;;8.02;2.63;;;;;;;;;;4945945;28;20138;-58
2021/05/09 01:15:03;;;;;;;7.15;2.22;;;;;;;;;;4949063;28;20058;-59
2021/05/09 01:17:29;;;;;;;5.18;1.98;;;;;;;;;;4947173;28;20042;-59
2021/05/09 01:19:59;;;;;;;5.70;2.15;;;;;;;;;;4950568;28;20042;-59
2021/05/09 01:22:28;;;;;;;7.20;2.13;;;;;;;;;;4950173;28;20039;-59
2021/05/09 01:24:55;;;;;;;7.70;2.80;;;;;;;;;;4934814;29;20107;-59
2021/05/09 01:27:22;;;;;;;7.68;2.20;;;;;;;;;;4952612;28;20070;-58
2021/05/09 01:29:48;;;;;;;6.03;1.63;;;;;;;;;;4952594;28;20545;-59
2021/05/09 01:32:16;;;;;;;6.32;2.20;;;;;;;;;;4947927;28;20069;-59
2021/05/09 01:34:43;;;;;;;9.73;2.60;;;;;;;;;;4950175;28;20044;-59
2021/05/09 01:37:10;;;;;;;6.53;2.42;;;;;;;;;;4954707;28;20046;-59
2021/05/09 01:39:36;;;;;;;5.95;2.50;;;;;;;;;;4949934;28;20059;-59
2021/05/09 01:42:03;;;;;;;6.22;2.08;;;;;;;;;;4948905;28;20043;-59
2021/05/09 01:44:32;;;;;;;5.78;2.40;;;;;;;;;;4933384;28;20082;-59
2021/05/09 01:46:59;;;;;;;6.32;2.42;;;;;;;;;;4946944;28;20039;-59
2021/05/09 01:49:25;;;;;;;8.07;2.37;;;;;;;;;;4945924;28;20841;-59
2021/05/09 01:51:54;;;;;;;8.95;2.28;;;;;;;;;;4952851;28;20091;-59
2021/05/09 01:54:21;;;;;;;4.97;2.50;;;;;;;;;;4948349;28;20545;-59
2021/05/09 01:56:52;;;;;;;7.78;2.40;;;;;;;;;;4951033;28;20046;-57
2021/05/09 01:59:20;;;;;;;9.65;2.75;;;;;;;;;;4950280;28;20047;-59
2021/05/09 02:01:47;;;;;;;8.18;2.55;;;;;;;;;;4954396;28;20035;-59
2021/05/09 02:04:31;;;;;;;6.75;2.53;;;;;;;;;;4945878;28;20058;-59
2021/05/09 02:06:58;;;;;;;;;;;;;;;;;;4947270;29;20154;-59
2021/05/09 02:09:25;;;;;;;5.85;2.67;;;;;;;;;;4950275;28;19933;-59
2021/05/09 02:11:53;;;;;;;7.15;2.25;;;;;;;;;;4942269;29;20050;-59
2021/05/09 02:14:32;;;;;;;6.07;2.45;;;;;;;;;;4952367;28;20054;-59
2021/05/09 02:17:03;;;;;;;6.10;2.63;;;;;;;;;;4936104;29;20074;-58
2021/05/09 02:19:29;;;;;;;10.95;2.58;;;;;;;;;;4952157;28;20613;-57
2021/05/09 02:21:56;;;;;;;13.27;2.70;;;;;;;;;;4934479;29;20491;-59
2021/05/09 02:24:25;;;;;;;7.90;2.25;;;;;;;;;;4930878;28;20102;-59
2021/05/09 02:26:52;;;;;;;5.13;2.53;;;;;;;;;;4917625;29;20047;-59
2021/05/09 02:29:19;;;;;;;8.88;2.40;;;;;;;;;;4951342;28;20049;-59
2021/05/09 02:31:47;;;;;;;5.80;2.33;;;;;;;;;;4950550;28;20060;-59
2021/05/09 02:34:27;;;;;;;6.18;2.40;;;;;;;;;;4945782;28;20035;-59
2021/05/09 02:36:55;;;;;;;7.00;2.47;;;;;;;;;;4928087;28;20055;-59
2021/05/09 02:39:21;;;;;;;7.88;2.40;;;;;;;;;;4946467;28;20055;-59
2021/05/09 02:41:47;;;;;;;10.68;2.53;;;;;;;;;;4933352;29;20052;-59
2021/05/09 02:44:15;;;;;;;8.23;2.00;;;;;;;;;;4948790;28;20036;-59
2021/05/09 02:46:43;;;;;;;6.35;2.30;;;;;;;;;;4931108;29;20114;-59
2021/05/09 02:49:10;;;;;;;7.30;2.70;;;;;;;;;;4947886;28;20038;-60
2021/05/09 02:51:37;;;;;;;10.35;2.70;;;;;;;;;;4947752;28;20079;-59
2021/05/09 02:54:04;;;;;;;7.00;2.50;;;;;;;;;;4932346;29;20066;-59
2021/05/09 02:56:31;;;;;;;11.15;2.63;;;;;;;;;;4945391;28;20036;-59
2021/05/09 02:59:01;;;;;;;6.30;2.28;;;;;;;;;;4949876;28;20053;-59
2021/05/09 03:01:31;;;;;;;11.00;2.80;;;;;;;;;;4933154;28;20510;-59
2021/05/09 03:03:57;;;;;;;9.20;2.33;;;;;;;;;;4923718;29;20046;-58
2021/05/09 03:06:24;;;;;;;6.55;2.58;;;;;;;;;;4945975;28;20314;-59
2021/05/09 03:08:50;;;;;;;6.55;2.63;;;;;;;;;;4949358;28;20464;-59
2021/05/09 03:11:16;;;;;;;9.55;2.22;;;;;;;;;;4946059;28;20170;-59
2021/05/09 03:13:43;;;;;;;7.60;2.45;;;;;;;;;;4932212;29;20122;-59
2021/05/09 03:16:09;;;;;;;5.03;2.25;;;;;;;;;;4946805;28;20048;-59
2021/05/09 03:18:35;;;;;;;10.75;2.50;;;;;;;;;;4948267;28;20090;-58
2021/05/09 03:21:02;;;;;;;4.05;2.20;;;;;;;;;;4948919;28;20043;-59
2021/05/09 03:23:28;;;;;;;8.55;2.65;;;;;;;;;;4949858;28;20043;-58
2021/05/09 03:25:54;;;;;;;9.45;3.00;;;;;;;;;;4947851;29;20043;-59
2021/05/09 03:28:21;;;;;;;6.80;2.50;;;;;;;;;;4942900;29;20086;-57
2021/05/09 03:30:47;;;;;;;14.25;3.20;;;;;;;;;;4941983;28;20059;-58
2021/05/09 03:33:13;;;;;;;6.40;2.60;;;;;;;;;;4925584;29;20395;-59
2021/05/09 03:35:40;;;;;;;13.20;2.65;;;;;;;;;;4928164;29;20051;-59
2021/05/09 03:38:06;;;;;;;14.43;2.60;;;;;;;;;;4922566;29;20040;-59
2021/05/09 03:40:33;;;;;;;9.60;2.65;;;;;;;;;;4929304;29;20062;-57
2021/05/09 03:42:59;;;;;;;6.03;2.30;;;;;;;;;;4928700;29;20119;-58
2021/05/09 03:45:25;;;;;;;6.35;2.58;;;;;;;;;;4927987;29;20534;-58
2021/05/09 03:47:51;;;;;;;10.60;2.90;;;;;;;;;;4930292;29;20040;-58
2021/05/09 03:50:18;;;;;;;8.35;2.65;;;;;;;;;;4913356;29;20052;-58
2021/05/09 03:52:44;;;;;;;10.40;2.70;;;;;;;;;;4923623;29;20042;-56
2021/05/09 03:55:10;;;;;;;8.00;2.38;;;;;;;;;;4928315;29;20052;-58
2021/05/09 03:57:37;;;;;;;9.63;2.47;;;;;;;;;;4929737;29;20480;-59
2021/05/09 04:00:06;;;;;;;4.32;2.20;;;;;;;;;;4930931;29;20492;-57
2021/05/09 04:02:39;;;;;;;6.53;2.47;;;;;;;;;;4927780;29;20103;-58
2021/05/09 04:05:06;;;;;;;6.95;3.13;;;;;;;;;;4925248;29;20039;-58
2021/05/09 04:07:32;;;;;;;7.70;3.15;;;;;;;;;;4920306;29;20138;-58
2021/05/09 04:09:59;;;;;;;9.68;2.40;;;;;;;;;;4924586;29;20059;-57
2021/05/09 04:12:26;;;;;;;10.05;3.20;;;;;;;;;;4926989;29;20079;-54
2021/05/09 04:14:53;;;;;;;3.85;1.77;;;;;;;;;;4928068;29;20043;-55
2021/05/09 04:17:20;;;;;;;10.55;2.83;;;;;;;;;;4926619;29;20036;-57
2021/05/09 04:19:47;;;;;;;9.68;2.88;;;;;;;;;;4923967;29;20397;-56
2021/05/09 04:22:13;;;;;;;6.75;3.22;;;;;;;;;;4927415;29;20054;-57
2021/05/09 04:24:39;;;;;;;7.90;2.97;;;;;;;;;;4925297;29;20040;-56
2021/05/09 04:27:06;;;;;;;5.50;2.83;;;;;;;;;;4923805;29;20091;-54
2021/05/09 04:29:32;;;;;;;11.27;3.13;;;;;;;;;;4926384;29;20159;-56
2021/05/09 04:31:59;;;;;;;10.18;2.72;;;;;;;;;;4925543;29;20040;-57
2021/05/09 04:34:26;;;;;;;9.63;2.92;;;;;;;;;;4928730;29;20058;-56
2021/05/09 04:36:52;;;;;;;6.30;3.45;;;;;;;;;;4924420;29;20042;-55
2021/05/09 04:39:18;;;;;;;12.82;3.67;;;;;;;;;;4930656;29;20099;-57
2021/05/09 04:41:45;;;;;;;11.07;3.63;;;;;;;;;;4929537;29;20043;-52
2021/05/09 04:44:12;;;;;;;9.43;3.38;;;;;;;;;;4923020;29;20496;-55
2021/05/09 04:46:38;;;;;;;13.45;3.13;;;;;;;;;;4924635;29;20069;-55
2021/05/09 04:49:06;;;;;;;12.07;3.88;;;;;;;;;;4933391;29;20044;-55
2021/05/09 04:51:32;;;;;;;15.13;3.90;;;;;;;;;;4927230;29;20063;-56
2021/05/09 04:53:59;;;;;;;15.20;3.70;;;;;;;;;;4926552;29;20043;-56
2021/05/09 04:56:25;;;;;;;5.85;3.63;;;;;;;;;;4924839;29;20047;-56
2021/05/09 04:58:55;;;;;;;11.68;3.47;;;;;;;;;;4931631;29;20114;-56
2021/05/09 05:01:21;;;;;;;11.95;3.47;;;;;;;;;;4919564;29;20155;-56
2021/05/09 05:03:49;;;;;;;5.93;2.45;;;;;;;;;;4915880;29;20055;-56
2021/05/09 05:06:15;;;;;;;9.60;3.20;;;;;;;;;;4934684;29;20051;-56
2021/05/09 05:08:41;;;;;;;6.70;3.60;;;;;;;;;;4927888;29;20039;-54
2021/05/09 05:11:08;;;;;;;8.02;3.38;;;;;;;;;;4928870;29;20139;-53
2021/05/09 05:13:35;;;;;;;9.32;3.33;;;;;;;;;;4929913;29;20052;-54
2021/05/09 05:16:06;;;;;;;7.18;3.33;;;;;;;;;;4930316;29;20051;-55
2021/05/09 05:18:33;;;;;;;7.40;3.83;;;;;;;;;;4932396;29;20064;-53
2021/05/09 05:21:04;;;;;;;10.30;3.92;;;;;;;;;;4929793;29;20464;-55
2021/05/09 05:23:31;;;;;;;7.00;3.50;;;;;;;;;;4932923;29;20063;-54
2021/05/09 05:25:57;;;;;;;9.25;3.55;;;;;;;;;;4931238;29;20039;-53
2021/05/09 05:28:24;;;;;;;10.30;3.58;;;;;;;;;;4929706;29;20083;-57
2021/05/09 05:30:51;;;;;;;4.65;3.15;;;;;;;;;;4930413;29;20067;-55
2021/05/09 05:33:28;;;;;;;10.02;3.63;;;;;;;;;;4930491;29;20048;-50
2021/05/09 05:35:55;;;;;;;5.57;3.47;;;;;;;;;;4931325;29;20562;-53
2021/05/09 05:38:22;;;;;;;7.55;3.30;;;;;;;;;;4918966;29;20044;-55
2021/05/09 05:40:54;;;;;;;7.68;3.25;;;;;;;;;;4930077;29;20047;-55
2021/05/09 05:43:24;;;;;;;5.85;3.40;;;;;;;;;;4926752;29;20472;-52
2021/05/09 05:45:51;;;;;;;11.02;3.42;;;;;;;;;;4928794;29;20048;-52
2021/05/09 05:48:18;;;;;;;5.80;2.97;;;;;;;;;;4930704;29;20463;-48
2021/05/09 05:50:44;;;;;;;7.47;3.67;;;;;;;;;;4930342;29;20291;-53
2021/05/09 05:53:11;;;;;;;11.45;4.63;;;;;;;;;;4929657;29;20071;-53
2021/05/09 05:55:37;;;;;;;11.63;3.55;;;;;;;;;;4931459;29;20055;-53
2021/05/09 05:58:04;;;;;;;4.70;2.78;;;;;;;;;;4930333;29;20056;-56
2021/05/09 06:00:32;;;;;;;11.63;3.63;;;;;;;;;;4931558;29;20040;-51
2021/05/09 06:02:58;;;;;;;4.72;3.03;;;;;;;;;;4924609;29;20114;-54
2021/05/09 06:05:24;;;;;;;5.93;3.33;;;;;;;;;;4929177;29;20063;-56
2021/05/09 06:07:50;;;;;;;8.85;3.58;;;;;;;;;;4927744;29;20028;-53
2021/05/09 06:10:16;;;;;;;7.68;4.30;;;;;;;;;;4931614;29;20380;-50
2021/05/09 06:12:42;;;;;;;9.85;3.03;;;;;;;;;;4926971;29;20137;-54
2021/05/09 06:15:10;;;;;;;7.60;2.88;;;;;;;;;;4931315;29;20459;-51
2021/05/09 06:17:36;;;;;;;7.80;3.47;;;;;;;;;;4930390;29;20134;-52
2021/05/09 06:20:09;;;;;;;9.23;3.58;;;;;;;;;;4937439;29;20048;-54
2021/05/09 06:22:36;;;;;;;10.93;4.60;;;;;;;;;;4924439;29;20090;-52
2021/05/09 06:25:03;;;;;;;6.10;3.30;;;;;;;;;;4925064;29;20087;-48
2021/05/09 06:27:29;;;;;;;9.10;3.78;;;;;;;;;;4928179;29;20054;-49
2021/05/09 06:29:57;;;;;;;4.03;2.90;;;;;;;;;;4929663;29;20067;-53
2021/05/09 06:32:23;;;;;;;9.77;4.40;;;;;;;;;;4928246;29;20043;-55
2021/05/09 06:34:50;;;;;;;8.23;4.33;;;;;;;;;;4933372;29;20183;-56
2021/05/09 06:37:17;;;;;;;9.60;3.75;;;;;;;;;;4924130;29;20347;-52
2021/05/09 06:39:43;;;;;;;8.38;4.65;;;;;;;;;;4927721;29;20710;-52
2021/05/09 06:42:09;;;;;;;9.10;4.28;;;;;;;;;;4927719;29;20052;-54
2021/05/09 06:44:38;;;;;;;12.98;4.72;;;;;;;;;;4927040;29;20043;-49
2021/05/09 06:47:05;;;;;;;8.48;4.97;;;;;;;;;;4927349;29;20138;-54
2021/05/09 06:49:32;;;;;;;9.35;4.40;;;;;;;;;;4926559;29;20062;-50
2021/05/09 06:52:00;;;;;;;5.90;4.18;;;;;;;;;;4924028;29;20052;-54
2021/05/09 06:54:26;;;;;;;;;;;;;;;;;;4927370;29;20046;-53
2021/05/09 06:56:53;;;;;;;6.60;5.22;;;;;;;;;;4922969;29;19931;-55
2021/05/09 06:59:19;;;;;;;10.75;5.00;;;;;;;;;;4929227;29;20043;-53
2021/05/09 07:01:46;;;;;;;8.40;4.43;;;;;;;;;;4925493;29;20049;-53
2021/05/09 07:04:12;;;;;;;9.65;4.75;;;;;;;;;;4921494;29;20046;-50
2021/05/09 07:06:38;;;;;;;14.63;5.13;;;;;;;;;;4928557;29;20085;-54
2021/05/09 07:09:10;;;;;;;8.93;4.75;;;;;;;;;;4926637;29;20043;-52
2021/05/09 07:11:37;;;;;;;8.75;4.53;;;;;;;;;;4923862;29;20099;-54
2021/05/09 07:14:05;;;;;;;8.98;4.10;;;;;;;;;;4925359;29;20054;-53
2021/05/09 07:16:31;;;;;;;9.60;4.90;;;;;;;;;;4930509;29;20094;-54
2021/05/09 07:18:59;;;;;;;5.68;4.18;;;;;;;;;;4919599;29;20047;-56
2021/05/09 07:21:34;;;;;;;8.52;4.25;;;;;;;;;;4924989;29;20411;-54
2021/05/09 07:24:00;;;;;;;9.77;4.80;;;;;;;;;;4925687;29;20127;-56
2021/05/09 07:26:26;;;;;;;8.48;4.38;;;;;;;;;;4922710;29;20052;-54
2021/05/09 07:28:52;;;;;;;10.88;4.63;;;;;;;;;;4924663;29;20048;-54
2021/05/09 07:31:25;;;;;;;8.65;3.72;;;;;;;;;;4281787;29;10001342;-56
2021/05/09 07:33:51;;;;;;;6.97;4.20;;;;;;;;;;4921514;29;20266;-55
2021/05/09 07:36:17;;;;;;;7.95;4.95;;;;;;;;;;4930294;29;20515;-55
2021/05/09 07:38:44;;;;;;;8.10;4.07;;;;;;;;;;4926145;29;20063;-54
2021/05/09 07:41:10;;;;;;;8.10;3.85;;;;;;;;;;4909271;29;20534;-54
2021/05/09 07:43:37;;;;;;;6.93;3.35;;;;;;;;;;4921272;29;20091;-56
2021/05/09 07:46:03;;;;;;;8.43;4.43;;;;;;;;;;4926054;29;20051;-56
2021/05/09 07:48:29;;;;;;;7.85;4.15;;;;;;;;;;4920619;29;20044;-54
2021/05/09 07:50:55;;;;;;;9.93;4.47;;;;;;;;;;4923781;29;20042;-53
2021/05/09 07:53:22;;;;;;;6.85;4.20;;;;;;;;;;4925213;29;20046;-57
2021/05/09 07:55:48;;;;;;;8.05;3.92;;;;;;;;;;4926111;29;20119;-57
2021/05/09 07:58:16;;;;;;;4.72;4.03;;;;;;;;;;4925596;29;20050;-55
2021/05/09 08:00:42;;;;;;;6.57;3.58;;;;;;;;;;4929221;29;20040;-57
2021/05/09 08:03:09;;;;;;;7.00;4.32;;;;;;;;;;4924821;29;20047;-56
2021/05/09 08:05:36;;;;;;;5.90;3.90;;;;;;;;;;4927422;29;20044;-54
2021/05/09 08:08:02;;;;;;;5.97;3.60;;;;;;;;;;4923270;29;20063;-57
2021/05/09 08:10:36;;;;;;;8.13;3.85;;;;;;;;;;4918830;29;20555;-56
2021/05/09 08:13:04;;;;;;;6.20;2.90;;;;;;;;;;4925298;29;20044;-56
2021/05/09 08:15:30;;;;;;;4.38;3.20;;;;;;;;;;4926775;29;20961;-55
2021/05/09 08:17:58;;;;;;;4.63;3.42;;;;;;;;;;4929407;29;20047;-56
2021/05/09 08:20:25;;;;;;;4.32;3.10;;;;;;;;;;4924002;29;20067;-57
2021/05/09 08:22:51;;;;;;;5.40;3.30;;;;;;;;;;4922763;29;20052;-54
2021/05/09 08:25:18;;;;;;;5.30;3.15;;;;;;;;;;4923051;29;20567;-55
2021/05/09 08:27:47;;;;;;;4.38;3.05;;;;;;;;;;4931415;29;20105;-57
2021/05/09 08:30:14;;;;;;;4.70;2.65;;;;;;;;;;4919739;29;20457;-57
2021/05/09 08:32:41;;;;;;;3.78;2.90;;;;;;;;;;4907273;29;20625;-57
2021/05/09 08:35:10;;;;;;;4.18;2.67;;;;;;;;;;4907784;29;20079;-57
2021/05/09 08:37:40;;;;;;;6.82;3.20;;;;;;;;;;4903206;29;20055;-56
2021/05/09 08:40:07;;;;;;;5.60;2.65;;;;;;;;;;4880686;29;20047;-57
2021/05/09 08:42:34;;;;;;;3.90;3.00;;;;;;;;;;4909043;29;20043;-57
2021/05/09 08:45:00;;;;;;;4.15;2.55;;;;;;;;;;4909403;29;20047;-56
2021/05/09 08:47:42;;;;;;;3.63;2.40;;;;;;;;;;4909437;29;20068;-55
2021/05/09 08:50:10;;;;;;;4.82;2.17;;;;;;;;;;4909841;29;20060;-56
2021/05/09 08:52:37;;;;;;;2.60;2.00;;;;;;;;;;4907752;29;20053;-57
2021/05/09 08:55:07;;;;;;;2.97;2.28;;;;;;;;;;4908007;29;20072;-57
2021/05/09 08:57:34;;;;;;;5.28;2.40;;;;;;;;;;4873407;29;20435;-57
2021/05/09 09:00:02;;;;;;;3.28;2.00;;;;;;;;;;4912552;29;20040;-57
2021/05/09 09:02:29;;;;;;;4.65;2.05;;;;;;;;;;4911814;29;20040;-55
2021/05/09 09:04:58;;;;;;;2.95;2.05;;;;;;;;;;4914235;29;20051;-56
2021/05/09 09:07:24;;;;;;;2.53;2.10;;;;;;;;;;4911967;29;20076;-57
2021/05/09 09:09:52;;;;;;;2.85;2.03;;;;;;;;;;4910300;29;20040;-55
2021/05/09 09:12:20;;;;;;;2.10;1.75;;;;;;;;;;4911907;29;20051;-57
2021/05/09 09:14:51;;;;;;;3.50;2.10;;;;;;;;;;4906023;29;20048;-57
2021/05/09 09:17:17;;;;;;;2.53;1.67;;;;;;;;;;4910682;29;20044;-57
2021/05/09 09:20:03;;;;;;;2.75;1.80;;;;;;;;;;4914828;29;20048;-57
2021/05/09 09:22:49;;;;;;;2.42;1.65;;;;;;;;;;4911558;29;20040;-57
2021/05/09 09:25:16;;;;;;;3.63;2.00;;;;;;;;;;4913484;29;20112;-55
2021/05/09 09:27:43;;;;;;;1.60;1.40;;;;;;;;;;4912678;29;20485;-57
2021/05/09 09:30:09;;;;;;;3.22;1.70;;;;;;;;;;4913387;29;20039;-57
2021/05/09 09:32:36;;;;;;;2.08;1.60;;;;;;;;;;4913684;29;20522;-56
2021/05/09 09:35:02;;;;;;;2.42;1.70;;;;;;;;;;4909407;29;20051;-56
2021/05/09 09:37:34;;;;;;;3.33;1.60;;;;;;;;;;4914769;29;20400;-57
2021/05/09 09:40:03;;;;;;;2.92;1.80;;;;;;;;;;4897058;29;20048;-54
2021/05/09 09:42:41;;;;;;;3.50;1.50;;;;;;;;;;4917046;29;20492;-57
2021/05/09 09:45:17;;;;;;;2.53;1.80;;;;;;;;;;4914734;29;20406;-56
2021/05/09 09:47:54;;;;;;;1.90;1.60;;;;;;;;;;4913918;29;20738;-53
2021/05/09 09:50:40;;;;;;;1.23;1.13;;;;;;;;;;4915385;29;20480;-57
2021/05/09 09:53:24;;;;;;;2.10;1.67;;;;;;;;;;4918987;29;20044;-56
2021/05/09 09:56:07;;;;;;;1.63;1.50;;;;;;;;;;4911938;29;20408;-56
2021/05/09 09:58:40;;;;;;;2.83;1.52;;;;;;;;;;4913617;29;20068;-56
2021/05/09 10:01:08;;;;;;;1.48;1.00;;;;;;;;;;4912990;29;20167;-55
2021/05/09 10:03:37;;;;;;;3.35;1.30;;;;;;;;;;4913039;29;20036;-52
2021/05/09 10:06:04;;;;;;;1.10;1.00;;;;;;;;;;4914621;29;20047;-55
2021/05/09 10:08:32;;;;;;;1.85;1.27;;;;;;;;;;4910664;29;20048;-57
2021/05/09 10:10:58;;;;;;;;;;;;;;;;;;4915729;29;20055;-50
2021/05/09 10:13:25;;;;;;;1.73;1.15;;;;;;;;;;4914625;29;19923;-56
2021/05/09 10:15:54;;;;;;;1.00;1.00;;;;;;;;;;4915761;29;20075;-53
2021/05/09 10:18:21;;;;;;;1.30;1.13;;;;;;;;;;4915282;29;20375;-53
2021/05/09 10:20:47;;;;;;;1.27;0.97;;;;;;;;;;4915472;29;20043;-53
2021/05/09 10:23:14;;;;;;;2.13;0.85;;;;;;;;;;4912001;29;20816;-56
2021/05/09 10:25:54;;;;;;;0.90;0.90;;;;;;;;;;4914278;29;20492;-55
2021/05/09 10:28:35;;;;;;;5.85;1.08;;;;;;;;;;4909276;29;20108;-56
2021/05/09 10:31:02;;;;;;;2.00;1.15;;;;;;;;;;4910524;29;20512;-56
2021/05/09 10:33:37;;;;;;;2.45;1.00;;;;;;;;;;4912737;29;20046;-55
2021/05/09 10:36:16;;;;;;;1.20;1.10;;;;;;;;;;4912038;29;20066;-56
2021/05/09 10:39:01;;;;;;;1.13;0.93;;;;;;;;;;4914284;29;20048;-55
2021/05/09 10:41:28;;;;;;;1.50;1.40;;;;;;;;;;4918400;29;20060;-51
2021/05/09 10:43:55;;;;;;;1.73;1.10;;;;;;;;;;4913650;29;20119;-55
2021/05/09 10:46:21;;;;;;;2.33;0.90;;;;;;;;;;4913093;29;20077;-55
2021/05/09 10:49:07;;;;;;;1.20;1.10;;;;;;;;;;4912835;29;20050;-54
2021/05/09 10:51:33;;;;;;;0.73;0.73;;;;;;;;;;4917198;29;20055;-56
2021/05/09 10:54:17;;;;;;;0.70;0.70;;;;;;;;;;4911419;29;20067;-53
2021/05/09 10:56:45;;;;;;;1.90;0.90;;;;;;;;;;4913560;29;20047;-57
2021/05/09 10:59:11;;;;;;;1.55;0.98;;;;;;;;;;4911586;29;20514;-56
2021/05/09 11:01:37;;;;;;;1.88;0.93;;;;;;;;;;4913190;29;20039;-55
2021/05/09 11:04:08;;;;;;;1.10;0.80;;;;;;;;;;4914097;29;20050;-55
2021/05/09 11:06:39;;;;;;;1.90;0.90;;;;;;;;;;4910806;29;20047;-52
2021/05/09 11:09:05;;;;;;;0.70;0.70;;;;;;;;;;4914305;29;20103;-53
2021/05/09 11:11:31;;;;;;;1.38;0.80;;;;;;;;;;4914769;29;20131;-52
2021/05/09 11:13:58;;;;;;;1.17;1.02;;;;;;;;;;4913144;29;20052;-55
2021/05/09 11:16:24;;;;;;;1.10;0.70;;;;;;;;;;4911521;29;20044;-54
2021/05/09 11:19:00;;;;;;;1.10;1.00;;;;;;;;;;4910467;29;20519;-53
2021/05/09 11:21:30;;;;;;;0.80;0.80;;;;;;;;;;4913956;29;20297;-53
2021/05/09 11:23:57;;;;;;;1.17;0.82;;;;;;;;;;4912978;29;20043;-57
2021/05/09 11:26:41;;;;;;;1.52;0.55;;;;;;;;;;4912307;29;20044;-54
2021/05/09 11:29:10;;;;;;;1.35;0.70;;;;;;;;;;4911072;29;20047;-57
2021/05/09 11:31:41;;;;;;;0.60;0.60;;;;;;;;;;4913632;29;20055;-57
2021/05/09 11:34:08;;;;;;;0.90;0.80;;;;;;;;;;4910175;29;20495;-56
2021/05/09 11:36:35;;;;;;;1.17;0.90;;;;;;;;;;4909859;29;20046;-54
2021/05/09 11:39:06;;;;;;;1.50;0.90;;;;;;;;;;4894562;29;20058;-54
2021/05/09 11:41:46;;;;;;;0.77;0.77;;;;;;;;;;4911679;29;20071;-55
2021/05/09 11:44:13;;;;;;;0.68;0.68;;;;;;;;;;4909949;29;20052;-55
2021/05/09 11:46:39;;;;;;;0.93;0.93;;;;;;;;;;4909763;29;20589;-54
2021/05/09 11:49:16;;;;;;;1.10;1.00;;;;;;;;;;4913927;29;20062;-53
2021/05/09 11:51:52;;;;;;;1.48;1.38;;;;;;;;;;4909557;29;20044;-56
2021/05/09 11:54:19;;;;;;;1.58;1.42;;;;;;;;;;4911194;29;20150;-54
2021/05/09 11:56:49;;;;;;;2.25;1.15;;;;;;;;;;4914481;29;20039;-57
2021/05/09 11:59:32;;;;;;;1.95;1.73;;;;;;;;;;4914234;29;20468;-54
2021/05/09 12:02:00;;;;;;;4.07;2.28;;;;;;;;;;4911218;29;20554;-55
2021/05/09 12:04:30;;;;;;;5.00;2.30;;;;;;;;;;4909120;29;20040;-55
2021/05/09 12:06:58;;;;;;;4.18;3.10;;;;;;;;;;4907128;29;20108;-55
2021/05/09 12:09:24;;;;;;;6.13;3.63;;;;;;;;;;4910692;29;20131;-57
2021/05/09 12:11:51;;;;;;;7.80;3.85;;;;;;;;;;4909093;29;20032;-52
2021/05/09 12:14:17;;;;;;;9.20;4.32;;;;;;;;;;4912265;29;20135;-55
2021/05/09 12:16:44;;;;;;;6.85;4.60;;;;;;;;;;4911760;29;20415;-55
2021/05/09 12:19:10;;;;;;;13.23;5.95;;;;;;;;;;4894311;29;20051;-56
2021/05/09 12:21:37;;;;;;;9.93;6.35;;;;;;;;;;4912835;29;20044;-55
2021/05/09 12:24:06;;;;;;;12.30;8.13;;;;;;;;;;4911575;29;20140;-58
2021/05/09 12:26:33;;;;;;;15.82;7.10;;;;;;;;;;4909215;29;20040;-57
2021/05/09 12:29:15;;;;;;;16.45;9.43;;;;;;;;;;4911640;29;20040;-57
2021/05/09 12:31:41;;;;;;;20.10;10.52;;;;;;;;;;4913706;29;20393;-56
2021/05/09 12:34:07;;;;;;;24.92;12.25;;;;;;;;;;4911886;29;20504;-55
2021/05/09 12:36:35;;;;;;;25.38;11.18;;;;;;;;;;4911412;29;20044;-54
2021/05/09 12:39:20;;;;;;;28.10;12.57;;;;;;;;;;4916988;29;20052;-53
2021/05/09 12:41:53;;;;;;;26.98;14.18;;;;;;;;;;4912771;29;20052;-56
2021/05/09 12:44:21;;;;;;;25.10;14.05;;;;;;;;;;4907845;29;22317;-57
2021/05/09 12:46:47;;;;;;;25.23;14.13;;;;;;;;;;4909185;29;20119;-57
2021/05/09 12:49:21;;;;;;;28.77;15.65;;;;;;;;;;4912348;29;20056;-57
2021/05/09 12:52:00;;;;;;;31.42;14.73;;;;;;;;;;4908071;29;20079;-55
2021/05/09 12:54:26;;;;;;;;;;;;;;;;;;4911568;29;20052;-54
2021/05/09 12:57:11;;;;;;;26.15;15.77;;;;;;;;;;4910695;29;19997;-56
2021/05/09 12:59:51;;;;;;;33.30;17.05;;;;;;;;;;4912028;29;20055;-56
2021/05/09 13:02:18;;;;;;;33.72;18.35;;;;;;;;;;4909667;29;20059;-57
2021/05/09 13:04:47;;;;;;;25.93;17.30;;;;;;;;;;4909584;29;20068;-55
2021/05/09 13:07:15;;;;;;;34.10;20.92;;;;;;;;;;4912262;29;20066;-54
2021/05/09 13:09:42;;;;;;;29.48;16.67;;;;;;;;;;4915807;29;20040;-57
2021/05/09 13:12:08;;;;;;;33.70;20.33;;;;;;;;;;4912773;29;20060;-54
2021/05/09 13:14:45;;;;;;;32.17;19.33;;;;;;;;;;4912879;29;20046;-56
2021/05/09 13:17:16;;;;;;;41.13;21.45;;;;;;;;;;4914117;29;20055;-56
2021/05/09 13:19:43;;;;;;;32.40;18.58;;;;;;;;;;4900626;29;20053;-56
2021/05/09 13:22:10;;;;;;;45.08;21.15;;;;;;;;;;4912006;29;20512;-56
2021/05/09 13:24:36;;;;;;;32.97;19.60;;;;;;;;;;4915269;29;20043;-53
2021/05/09 13:27:03;;;;;;;35.88;20.45;;;;;;;;;;4919647;29;20058;-57
2021/05/09 13:29:29;;;;;;;33.95;18.00;;;;;;;;;;4915284;29;20388;-55
2021/05/09 13:31:57;;;;;;;31.58;19.90;;;;;;;;;;4913239;29;20181;-55
2021/05/09 13:34:23;;;;;;;36.10;19.90;;;;;;;;;;4910930;29;20056;-57
2021/05/09 13:36:50;;;;;;;29.20;17.58;;;;;;;;;;4902988;29;20654;-58
2021/05/09 13:39:16;;;;;;;28.90;21.13;;;;;;;;;;4913869;29;20052;-56
2021/05/09 13:41:42;;;;;;;26.92;16.80;;;;;;;;;;4915820;29;20040;-54
2021/05/09 13:44:08;;;;;;;31.95;17.90;;;;;;;;;;4914788;29;20051;-56
2021/05/09 13:46:35;;;;;;;30.53;17.30;;;;;;;;;;4916869;29;20520;-55
2021/05/09 13:49:01;;;;;;;38.15;21.00;;;;;;;;;;4918639;29;20103;-54
2021/05/09 13:51:28;;;;;;;28.77;16.42;;;;;;;;;;4913314;29;20119;-57
2021/05/09 13:53:55;;;;;;;31.75;18.88;;;;;;;;;;4914241;29;20115;-53
2021/05/09 13:56:21;;;;;;;35.63;19.58;;;;;;;;;;4914799;29;20060;-57
2021/05/09 13:58:50;;;;;;;37.30;21.15;;;;;;;;;;4915766;29;20052;-56
2021/05/09 14:01:18;;;;;;;35.40;21.05;;;;;;;;;;4917764;29;20051;-54
2021/05/09 14:03:44;;;;;;;39.28;20.15;;;;;;;;;;4913672;29;20126;-57
2021/05/09 14:06:11;;;;;;;36.42;20.48;;;;;;;;;;4913214;29;20052;-53
2021/05/09 14:08:39;;;;;;;27.33;15.95;;;;;;;;;;4913354;29;20046;-57
2021/05/09 14:11:05;;;;;;;35.85;22.58;;;;;;;;;;4915417;29;20047;-57
2021/05/09 14:13:32;;;;;;;22.05;13.82;;;;;;;;;;4919435;29;20130;-57
2021/05/09 14:15:59;;;;;;;23.95;15.93;;;;;;;;;;4915590;29;20036;-55
2021/05/09 14:18:25;;;;;;;28.63;17.25;;;;;;;;;;4915458;29;20078;-58
2021/05/09 14:20:52;;;;;;;28.48;18.00;;;;;;;;;;4913552;29;20485;-55
2021/05/09 14:23:19;;;;;;;37.40;18.65;;;;;;;;;;4916072;29;20103;-57
2021/05/09 14:25:46;;;;;;;25.52;14.82;;;;;;;;;;4910883;29;20104;-55
2021/05/09 14:28:12;;;;;;;31.42;16.80;;;;;;;;;;4914483;29;20051;-56
2021/05/09 14:30:38;;;;;;;29.90;14.65;;;;;;;;;;4914227;29;20056;-54
2021/05/09 14:33:04;;;;;;;29.27;14.63;;;;;;;;;;4913407;29;20143;-56
2021/05/09 14:35:31;;;;;;;28.90;15.82;;;;;;;;;;4911142;29;20044;-57
2021/05/09 14:37:58;;;;;;;30.48;16.05;;;;;;;;;;4913810;29;20569;-56
2021/05/09 14:40:24;;;;;;;28.60;15.82;;;;;;;;;;4914200;29;20060;-54
2021/05/09 14:42:50;;;;;;;21.27;13.52;;;;;;;;;;4918645;29;20036;-57
2021/05/09 14:45:17;;;;;;;25.67;13.77;;;;;;;;;;4914885;29;20052;-56